createdAt,value
2023-03-21T00:04:24.482Z,5.88
2023-03-21T00:09:27.183Z,6.70
2023-03-21T00:14:30.809Z,5.72
2023-03-21T00:19:32.870Z,6.60
2023-03-21T00:24:35.919Z,5.50
2023-03-21T00:29:37.828Z,5.53
2023-03-21T00:34:48.534Z,5.00
2023-03-21T00:39:56.580Z,4.40
2023-03-21T00:44:58.300Z,4.63
2023-03-21T00:49:59.909Z,4.60
2023-03-21T00:55:01.556Z,4.70
2023-03-21T01:00:06.490Z,4.88
2023-03-21T01:05:11.456Z,4.80
2023-03-21T01:10:13.134Z,5.35
2023-03-21T01:15:14.785Z,4.80
2023-03-21T01:20:16.782Z,5.60
2023-03-21T01:25:22.603Z,4.88
2023-03-21T01:30:28.684Z,4.60
2023-03-21T01:35:41.023Z,4.95
2023-03-21T01:40:51.236Z,4.60
2023-03-21T01:46:30.220Z,4.53
2023-03-21T01:51:49.339Z,4.22
2023-03-21T01:56:57.715Z,4.95
2023-03-21T02:02:07.143Z,4.93
2023-03-21T02:07:24.266Z,5.13
2023-03-21T02:12:28.943Z,5.13
2023-03-21T02:17:48.870Z,4.78
2023-03-21T02:23:32.037Z,4.72
2023-03-21T02:28:56.415Z,4.93
2023-03-21T02:34:17.620Z,5.50
2023-03-21T02:39:36.117Z,4.28
2023-03-21T02:44:46.835Z,5.03
2023-03-21T02:49:59.769Z,5.93
2023-03-21T02:55:04.882Z,5.30
2023-03-21T03:00:20.819Z,4.80
2023-03-21T03:05:25.335Z,5.43
2023-03-21T03:10:42.303Z,5.50
2023-03-21T03:16:15.479Z,5.28
2023-03-21T03:21:40.384Z,5.10
2023-03-21T03:26:48.026Z,5.28
2023-03-21T03:32:01.555Z,5.38
2023-03-21T03:37:10.654Z,5.05
2023-03-21T03:42:36.239Z,5.13
2023-03-21T03:47:57.431Z,6.03
2023-03-21T03:53:32.204Z,6.15
2023-03-21T03:58:44.916Z,5.68
2023-03-21T04:03:54.626Z,6.25
2023-03-21T04:09:03.511Z,6.05
2023-03-21T04:14:07.257Z,6.82
2023-03-21T04:19:09.370Z,6.00
2023-03-21T04:24:13.835Z,6.28
2023-03-21T04:29:17.435Z,7.15
2023-03-21T04:34:40.419Z,5.53
2023-03-21T04:39:42.942Z,5.95
2023-03-21T04:44:46.594Z,7.40
2023-03-21T04:49:48.265Z,6.85
2023-03-21T04:54:49.930Z,7.88
2023-03-21T04:59:52.971Z,6.47
2023-03-21T05:04:54.580Z,7.05
2023-03-21T05:09:56.241Z,7.28
2023-03-21T05:14:57.849Z,6.97
2023-03-21T05:19:59.620Z,7.03
2023-03-21T05:25:02.342Z,6.97
2023-03-21T05:30:20.691Z,6.90
2023-03-21T05:35:26.899Z,7.43
2023-03-21T05:40:31.005Z,7.45
2023-03-21T05:45:33.874Z,7.70
2023-03-21T05:50:36.061Z,8.82
2023-03-21T05:55:45.622Z,7.38
2023-03-21T06:00:58.794Z,6.78
2023-03-21T06:06:07.760Z,6.97
2023-03-21T06:11:27.398Z,7.30
2023-03-21T06:16:54.998Z,6.88
2023-03-21T06:21:57.182Z,7.22
2023-03-21T06:26:59.402Z,6.50
2023-03-21T06:32:07.628Z,6.70
2023-03-21T06:37:09.704Z,6.68
2023-03-21T06:42:13.016Z,7.10
2023-03-21T06:47:15.748Z,6.93
2023-03-21T06:52:19.493Z,6.47
2023-03-21T06:57:22.002Z,6.43
2023-03-21T07:02:24.920Z,7.07
2023-03-21T07:07:49.878Z,6.88
2023-03-21T07:12:51.484Z,6.97
2023-03-21T07:17:59.343Z,6.47
2023-03-21T07:23:01.751Z,7.38
2023-03-21T07:28:03.456Z,5.95
2023-03-21T07:33:05.928Z,6.95
2023-03-21T07:38:07.974Z,6.82
2023-03-21T07:43:09.672Z,6.53
2023-03-21T07:48:17.988Z,6.22
2023-03-21T07:53:20.120Z,6.68
2023-03-21T07:58:22.422Z,6.68
2023-03-21T08:03:26.257Z,7.10
2023-03-21T08:08:27.980Z,6.72
2023-03-21T08:13:29.649Z,6.70
2023-03-21T08:18:31.299Z,6.38
2023-03-21T08:23:33.025Z,7.00
2023-03-21T08:28:34.945Z,7.93
2023-03-21T08:33:37.214Z,7.63
2023-03-21T08:38:39.509Z,7.43
2023-03-21T08:43:41.152Z,7.85
2023-03-21T08:48:43.105Z,8.80
2023-03-21T08:53:44.732Z,9.43
2023-03-21T08:58:47.382Z,8.35
2023-03-21T09:03:49.046Z,8.15
2023-03-21T09:08:53.475Z,9.70
2023-03-21T09:13:55.150Z,8.90
2023-03-21T09:18:59.061Z,8.15
2023-03-21T09:24:00.928Z,9.45
2023-03-21T09:29:04.921Z,8.55
2023-03-21T09:34:06.958Z,8.80
2023-03-21T09:39:08.676Z,8.88
2023-03-21T09:44:10.683Z,8.80
2023-03-21T09:49:35.334Z,10.10
2023-03-21T09:54:43.028Z,9.50
2023-03-21T09:59:44.944Z,9.50
2023-03-21T10:04:47.031Z,9.05
2023-03-21T10:09:51.989Z,10.30
2023-03-21T10:14:58.132Z,10.63
2023-03-21T10:20:17.379Z,10.88
2023-03-21T10:25:33.131Z,11.35
2023-03-21T10:30:42.488Z,11.43
2023-03-21T10:35:50.515Z,11.85
2023-03-21T10:40:52.212Z,10.73
2023-03-21T10:45:57.858Z,11.60
2023-03-21T10:50:59.601Z,11.43
2023-03-21T10:56:01.820Z,11.93
2023-03-21T11:01:08.350Z,11.32
2023-03-21T11:06:21.864Z,12.82
2023-03-21T11:11:33.470Z,12.20
2023-03-21T11:16:44.500Z,14.00
2023-03-21T11:21:46.639Z,14.27
2023-03-21T11:26:50.765Z,14.45
2023-03-21T11:31:52.942Z,14.82
2023-03-21T11:37:01.258Z,15.55
2023-03-21T11:42:03.284Z,15.80
2023-03-21T11:47:04.981Z,15.57
2023-03-21T11:52:21.663Z,15.98
2023-03-21T11:57:52.608Z,16.30
2023-03-21T12:03:00.307Z,17.05
2023-03-21T12:08:23.289Z,16.85
2023-03-21T12:13:43.318Z,18.05
2023-03-21T12:19:03.865Z,16.02
2023-03-21T12:24:26.666Z,16.45
2023-03-21T12:29:40.560Z,16.98
2023-03-21T12:35:02.815Z,17.63
2023-03-21T12:40:33.863Z,16.85
2023-03-21T12:45:46.975Z,16.38
2023-03-21T12:50:53.846Z,16.92
2023-03-21T12:56:01.561Z,16.23
2023-03-21T13:01:06.705Z,16.80
2023-03-21T13:06:13.410Z,16.88
2023-03-21T13:11:19.499Z,17.38
2023-03-21T13:16:30.253Z,17.98
2023-03-21T13:21:34.981Z,17.80
2023-03-21T13:26:42.014Z,17.10
2023-03-21T13:31:52.543Z,17.13
2023-03-21T13:36:56.514Z,16.30
2023-03-21T13:42:04.632Z,15.75
2023-03-21T13:47:25.024Z,16.65
2023-03-21T13:52:28.222Z,16.75
2023-03-21T13:57:30.524Z,16.80
2023-03-21T14:02:34.166Z,17.02
2023-03-21T14:07:41.671Z,16.77
2023-03-21T14:12:44.466Z,17.23
2023-03-21T14:18:16.370Z,17.40
2023-03-21T14:23:28.740Z,16.85
2023-03-21T14:28:33.187Z,16.70
2023-03-21T14:33:44.263Z,16.98
2023-03-21T14:39:02.210Z,16.50
2023-03-21T14:44:25.472Z,17.08
2023-03-21T14:49:30.313Z,17.23
2023-03-21T14:54:32.832Z,16.52
2023-03-21T14:59:37.985Z,17.17
2023-03-21T15:04:39.801Z,16.80
2023-03-21T15:09:54.293Z,16.42
2023-03-21T15:14:56.336Z,16.50
2023-03-21T15:19:57.982Z,17.02
2023-03-21T15:25:04.465Z,17.00
2023-03-21T15:30:07.503Z,17.05
2023-03-21T15:35:21.403Z,16.25
2023-03-21T15:40:31.077Z,16.85
2023-03-21T15:45:33.200Z,16.27
2023-03-21T15:51:12.171Z,16.33
2023-03-21T15:56:16.391Z,16.13
2023-03-21T16:01:20.326Z,15.60
2023-03-21T16:06:29.383Z,15.57
2023-03-21T16:11:51.226Z,15.07
2023-03-21T16:16:53.045Z,15.02
2023-03-21T16:21:54.650Z,13.98
2023-03-21T16:26:56.611Z,14.35
2023-03-21T16:31:58.250Z,14.63
2023-03-21T16:36:59.910Z,14.65
2023-03-21T16:42:01.543Z,14.32
2023-03-21T16:47:03.224Z,15.60
2023-03-21T16:52:04.998Z,15.35
2023-03-21T16:57:09.059Z,14.75
2023-03-21T17:02:16.914Z,14.95
2023-03-21T17:07:18.989Z,14.15
2023-03-21T17:12:20.840Z,14.88
2023-03-21T17:17:22.480Z,13.18
2023-03-21T17:22:24.093Z,12.35
2023-03-21T17:27:25.856Z,13.27
2023-03-21T17:32:27.517Z,13.68
2023-03-21T17:37:29.139Z,12.57
2023-03-21T17:42:30.789Z,11.95
2023-03-21T17:47:32.834Z,11.40
2023-03-21T17:52:35.389Z,10.13
2023-03-21T17:57:37.735Z,9.35
2023-03-21T18:02:40.362Z,7.68
2023-03-21T18:08:08.870Z,8.48
2023-03-21T18:13:05.149Z,7.47
2023-03-21T18:18:06.929Z,8.68
2023-03-21T18:23:08.753Z,8.25
2023-03-21T18:28:12.490Z,8.00
2023-03-21T18:33:14.820Z,8.77
2023-03-21T18:38:16.659Z,9.45
2023-03-21T18:48:40.566Z,9.30
2023-03-21T18:53:42.685Z,10.23
2023-03-21T18:58:44.956Z,10.63
2023-03-21T19:04:11.639Z,11.13
2023-03-21T19:09:09.893Z,11.32
2023-03-21T19:14:13.936Z,10.00
2023-03-21T19:19:18.737Z,10.55
2023-03-21T19:24:27.762Z,10.73
2023-03-21T19:29:30.239Z,11.30
2023-03-21T19:34:32.310Z,10.95
2023-03-21T19:39:34.222Z,10.35
2023-03-21T19:44:36.783Z,10.07
2023-03-21T19:50:20.847Z,9.77
2023-03-21T19:55:02.676Z,10.13
2023-03-21T20:00:05.412Z,10.25
2023-03-21T20:05:07.836Z,10.27
2023-03-21T20:10:11.048Z,10.38
2023-03-21T20:15:19.215Z,10.77
2023-03-21T20:20:23.546Z,9.60
2023-03-21T20:25:25.609Z,7.70
2023-03-21T20:30:27.802Z,6.68
2023-03-21T20:36:16.594Z,6.13
2023-03-21T20:40:53.044Z,5.30
2023-03-21T20:46:04.024Z,6.10
2023-03-21T20:52:14.877Z,5.72
2023-03-21T20:56:33.126Z,6.45
2023-03-21T21:01:34.978Z,6.45
2023-03-21T21:06:36.794Z,6.93
2023-03-21T21:17:07.734Z,7.47
2023-03-21T21:22:19.341Z,6.80
2023-03-21T21:27:21.134Z,7.63
2023-03-21T21:32:23.019Z,7.00
2023-03-21T21:37:25.172Z,6.40
2023-03-21T21:42:27.344Z,7.65
2023-03-21T21:47:29.337Z,7.68
2023-03-21T21:52:31.192Z,6.78
2023-03-21T21:57:34.744Z,9.55
2023-03-21T22:02:36.922Z,7.97
2023-03-21T22:07:39.333Z,7.35
2023-03-21T22:12:41.174Z,7.50
2023-03-21T22:17:43.235Z,7.60
2023-03-21T22:22:45.327Z,7.45
2023-03-21T22:27:47.262Z,8.52
2023-03-21T22:33:06.224Z,8.63
2023-03-21T22:38:10.482Z,9.60
2023-03-21T22:43:12.309Z,9.27
2023-03-21T22:48:14.364Z,8.68
2023-03-21T22:53:16.272Z,9.23
2023-03-21T22:58:18.165Z,9.00
2023-03-21T23:03:19.980Z,8.75
2023-03-21T23:08:21.967Z,9.13
2023-03-21T23:13:23.889Z,8.65
2023-03-21T23:18:25.722Z,9.20
2023-03-21T23:23:27.571Z,8.80
2023-03-21T23:28:29.368Z,8.63
2023-03-21T23:33:31.961Z,8.75
2023-03-21T23:38:33.989Z,8.25
2023-03-21T23:43:36.063Z,8.23
2023-03-21T23:48:37.840Z,8.10
2023-03-21T23:53:40.192Z,9.13
2023-03-21T23:58:42.016Z,8.98
